createdAt,value
2023-05-10T00:00:31.584Z,24.50
2023-05-10T00:05:32.974Z,24.40
2023-05-10T00:10:34.359Z,24.50
2023-05-10T00:15:35.734Z,24.40
2023-05-10T00:20:37.127Z,24.40
2023-05-10T00:25:38.529Z,24.40
2023-05-10T00:30:39.952Z,24.40
2023-05-10T00:35:41.339Z,24.40
2023-05-10T00:40:42.746Z,24.40
2023-05-10T00:45:44.196Z,24.40
2023-05-10T00:50:45.617Z,24.40
2023-05-10T00:55:46.997Z,24.40
2023-05-10T01:00:48.413Z,24.40
2023-05-10T01:05:49.814Z,24.40
2023-05-10T01:10:51.214Z,24.40
2023-05-10T01:15:52.696Z,24.40
2023-05-10T01:20:54.151Z,24.40
2023-05-10T01:25:55.590Z,24.40
2023-05-10T01:30:57.046Z,24.30
2023-05-10T01:35:58.487Z,24.40
2023-05-10T01:40:59.878Z,24.40
2023-05-10T01:46:01.296Z,24.40
2023-05-10T01:51:02.700Z,24.30
2023-05-10T01:56:04.102Z,24.40
2023-05-10T02:01:05.515Z,24.40
2023-05-10T02:06:06.939Z,24.30
2023-05-10T02:11:08.338Z,24.30
2023-05-10T02:16:09.816Z,24.30
2023-05-10T02:21:11.256Z,24.30
2023-05-10T02:26:12.657Z,24.30
2023-05-10T02:31:14.060Z,24.30
2023-05-10T02:36:15.464Z,24.30
2023-05-10T02:41:16.858Z,24.30
2023-05-10T02:46:18.278Z,24.30
2023-05-10T02:51:19.667Z,24.30
2023-05-10T02:56:21.074Z,24.30
2023-05-10T03:01:22.480Z,24.30
2023-05-10T03:06:23.934Z,24.30
2023-05-10T03:11:25.329Z,24.30
2023-05-10T03:16:26.868Z,24.30
2023-05-10T03:21:28.353Z,24.30
2023-05-10T03:26:29.756Z,24.30
2023-05-10T03:31:31.161Z,24.30
2023-05-10T03:36:32.963Z,24.30
2023-05-10T03:41:34.347Z,24.30
2023-05-10T03:46:35.779Z,24.30
2023-05-10T03:51:37.225Z,24.30
2023-05-10T03:56:38.618Z,24.30
2023-05-10T04:01:40.052Z,24.30
2023-05-10T04:06:42.378Z,24.30
2023-05-10T04:11:43.812Z,24.30
2023-05-10T04:16:45.244Z,24.30
2023-05-10T04:21:46.676Z,24.30
2023-05-10T04:26:48.094Z,24.30
2023-05-10T04:31:49.507Z,24.30
2023-05-10T04:36:50.917Z,24.30
2023-05-10T04:41:52.322Z,24.20
2023-05-10T04:46:53.727Z,24.20
2023-05-10T04:51:55.114Z,24.30
2023-05-10T04:56:56.523Z,24.30
2023-05-10T05:01:58.019Z,24.20
2023-05-10T05:06:59.426Z,24.20
2023-05-10T05:12:00.811Z,24.20
2023-05-10T05:17:02.203Z,24.20
2023-05-10T05:22:03.596Z,24.20
2023-05-10T05:27:04.990Z,24.20
2023-05-10T05:32:06.452Z,24.20
2023-05-10T05:37:08.039Z,24.20
2023-05-10T05:42:09.449Z,24.20
2023-05-10T05:47:10.848Z,24.20
2023-05-10T05:52:12.240Z,24.20
2023-05-10T05:57:13.637Z,24.20
2023-05-10T06:02:15.067Z,24.20
2023-05-10T06:07:16.469Z,24.20
2023-05-10T06:12:17.890Z,24.20
2023-05-10T06:17:19.329Z,24.20
2023-05-10T06:22:20.730Z,24.20
2023-05-10T06:27:22.135Z,24.10
2023-05-10T06:32:23.800Z,24.20
2023-05-10T06:37:25.309Z,24.20
2023-05-10T06:42:26.713Z,24.20
2023-05-10T06:47:28.180Z,24.20
2023-05-10T06:52:29.621Z,24.20
2023-05-10T06:57:32.208Z,24.10
2023-05-10T07:02:33.914Z,24.10
2023-05-10T07:07:35.364Z,24.20
2023-05-10T07:12:36.818Z,24.20
2023-05-10T07:17:38.281Z,24.20
2023-05-10T07:22:39.725Z,24.10
2023-05-10T07:27:41.160Z,24.20
2023-05-10T07:32:42.671Z,24.20
2023-05-10T07:37:44.063Z,24.20
2023-05-10T07:42:45.463Z,24.20
2023-05-10T07:47:46.882Z,24.20
2023-05-10T07:52:49.332Z,24.20
2023-05-10T07:57:50.746Z,24.20
2023-05-10T08:02:52.560Z,24.20
2023-05-10T08:07:53.972Z,24.10
2023-05-10T08:12:55.387Z,24.20
2023-05-10T08:17:56.812Z,24.20
2023-05-10T08:22:58.248Z,24.20
2023-05-10T08:27:59.654Z,24.20
2023-05-10T08:33:01.130Z,24.20
2023-05-10T08:38:02.629Z,24.20
2023-05-10T08:43:04.043Z,24.20
2023-05-10T08:48:05.487Z,24.10
2023-05-10T08:53:06.922Z,24.20
2023-05-10T08:58:08.355Z,24.20
2023-05-10T09:03:09.801Z,24.20
2023-05-10T09:08:11.234Z,24.20
2023-05-10T09:13:12.651Z,24.20
2023-05-10T09:18:14.106Z,24.10
2023-05-10T09:23:15.560Z,24.20
2023-05-10T09:28:16.978Z,24.10
2023-05-10T09:33:18.409Z,24.20
2023-05-10T09:38:19.818Z,24.20
2023-05-10T09:43:21.225Z,24.20
2023-05-10T09:48:22.626Z,24.20
2023-05-10T09:53:24.278Z,24.20
2023-05-10T09:58:25.768Z,24.20
2023-05-10T10:03:29.709Z,24.10
2023-05-10T10:08:31.692Z,24.10
2023-05-10T10:13:33.202Z,24.10
2023-05-10T10:18:34.667Z,24.20
2023-05-10T10:23:36.087Z,24.10
2023-05-10T10:28:37.526Z,24.20
2023-05-10T10:33:38.969Z,24.20
2023-05-10T10:38:40.380Z,24.10
2023-05-10T10:43:41.762Z,24.10
2023-05-10T10:48:43.155Z,24.20
2023-05-10T10:53:44.569Z,24.10
2023-05-10T10:58:46.004Z,24.10
2023-05-10T11:03:47.449Z,24.10
2023-05-10T11:08:48.885Z,24.10
2023-05-10T11:13:51.480Z,24.10
2023-05-10T11:18:53.399Z,24.10
2023-05-10T11:23:54.846Z,24.10
2023-05-10T11:28:56.240Z,24.10
2023-05-10T11:33:57.689Z,24.10
2023-05-10T11:38:59.120Z,24.10
2023-05-10T11:44:00.558Z,24.10
2023-05-10T11:49:01.992Z,24.10
2023-05-10T11:54:03.383Z,24.10
2023-05-10T11:59:04.803Z,24.10
2023-05-10T12:04:06.411Z,24.10
2023-05-10T12:09:07.925Z,24.20
2023-05-10T12:14:09.323Z,24.20
2023-05-10T12:19:10.840Z,24.20
2023-05-10T12:24:12.432Z,24.30
2023-05-10T12:29:13.850Z,24.30
2023-05-10T12:34:15.300Z,24.30
2023-05-10T12:39:16.715Z,24.30
2023-05-10T12:44:18.112Z,24.40
2023-05-10T12:49:19.549Z,24.40
2023-05-10T12:54:20.963Z,24.40
2023-05-10T12:59:22.368Z,24.50
2023-05-10T13:04:23.830Z,24.50
2023-05-10T13:09:25.254Z,24.50
2023-05-10T13:14:26.706Z,24.50
2023-05-10T13:19:28.089Z,24.50
2023-05-10T13:24:29.492Z,24.60
2023-05-10T13:29:30.912Z,24.50
2023-05-10T13:34:32.313Z,24.50
2023-05-10T13:39:33.720Z,24.50
2023-05-10T13:44:35.113Z,24.60
2023-05-10T13:49:36.532Z,24.50
2023-05-10T13:54:37.928Z,24.60
2023-05-10T13:59:39.373Z,24.60
2023-05-10T14:04:40.767Z,24.60
2023-05-10T14:09:42.178Z,24.60
2023-05-10T14:14:43.578Z,24.60
2023-05-10T14:19:44.976Z,24.60
2023-05-10T14:24:46.379Z,24.60
2023-05-10T14:29:47.778Z,24.60
2023-05-10T14:34:49.191Z,24.60
2023-05-10T14:39:50.628Z,24.70
2023-05-10T14:44:52.024Z,24.70
2023-05-10T14:49:53.414Z,24.70
2023-05-10T14:54:54.832Z,24.70
2023-05-10T14:59:56.221Z,24.60
2023-05-10T15:04:58.173Z,24.60
2023-05-10T15:09:59.843Z,24.70
2023-05-10T15:15:01.291Z,24.70
2023-05-10T15:20:02.737Z,24.80
2023-05-10T15:25:04.183Z,24.90
2023-05-10T15:30:08.625Z,24.90
2023-05-10T15:35:10.022Z,25.00
2023-05-10T15:40:12.902Z,25.10
2023-05-10T15:45:14.939Z,25.10
2023-05-10T15:50:16.619Z,25.20
2023-05-10T15:55:18.318Z,25.10
2023-05-10T16:00:19.982Z,25.10
2023-05-10T16:05:21.389Z,25.00
2023-05-10T16:10:22.789Z,25.00
2023-05-10T16:15:24.173Z,24.90
2023-05-10T16:20:25.564Z,24.90
2023-05-10T16:25:27.031Z,24.80
2023-05-10T16:30:28.415Z,24.80
2023-05-10T16:35:29.796Z,24.70
2023-05-10T16:40:31.192Z,24.70
2023-05-10T16:45:32.610Z,24.70
2023-05-10T16:50:34.015Z,24.60
2023-05-10T16:55:35.467Z,24.60
2023-05-10T17:00:36.863Z,24.60
2023-05-10T17:05:38.296Z,24.60
2023-05-10T17:10:39.751Z,24.50
2023-05-10T17:15:41.294Z,24.50
2023-05-10T17:20:42.748Z,24.50
2023-05-10T17:25:44.163Z,24.50
2023-05-10T17:30:45.568Z,24.50
2023-05-10T17:35:46.967Z,24.50
2023-05-10T17:40:48.372Z,24.50
2023-05-10T17:45:49.826Z,24.50
2023-05-10T17:50:51.317Z,24.50
2023-05-10T17:55:52.972Z,24.50
2023-05-10T18:00:54.425Z,24.50
2023-05-10T18:05:55.893Z,24.50
2023-05-10T18:10:57.316Z,24.50
2023-05-10T18:15:58.713Z,24.50
2023-05-10T18:21:00.120Z,24.50
2023-05-10T18:26:01.570Z,24.60
2023-05-10T18:31:02.974Z,24.60
2023-05-10T18:36:04.395Z,24.60
2023-05-10T18:41:05.797Z,24.60
2023-05-10T18:46:07.233Z,24.70
2023-05-10T18:51:08.660Z,24.70
2023-05-10T18:56:10.043Z,24.70
2023-05-10T19:01:11.486Z,24.70
2023-05-10T19:06:12.964Z,24.70
2023-05-10T19:11:14.362Z,24.70
2023-05-10T19:16:15.910Z,24.70
2023-05-10T19:21:18.138Z,24.70
2023-05-10T19:26:19.644Z,24.60
2023-05-10T19:31:21.286Z,24.60
2023-05-10T19:36:23.022Z,24.60
2023-05-10T19:41:24.480Z,24.60
2023-05-10T19:46:26.072Z,24.60
2023-05-10T19:51:27.510Z,24.60
2023-05-10T19:56:28.925Z,24.50
2023-05-10T20:01:30.669Z,24.50
2023-05-10T20:06:32.164Z,24.50
2023-05-10T20:11:33.558Z,24.50
2023-05-10T20:16:34.990Z,24.50
2023-05-10T20:21:36.413Z,24.50
2023-05-10T20:26:37.817Z,24.50
2023-05-10T20:31:39.229Z,24.50
2023-05-10T20:36:40.662Z,24.50
2023-05-10T20:41:42.059Z,24.50
2023-05-10T20:46:43.451Z,24.50
2023-05-10T20:51:44.840Z,24.50
2023-05-10T20:56:46.247Z,24.50
2023-05-10T21:01:47.672Z,24.50
2023-05-10T21:06:49.113Z,24.60
2023-05-10T21:11:50.495Z,24.60
2023-05-10T21:16:51.896Z,24.60
2023-05-10T21:21:54.269Z,24.60
2023-05-10T21:26:55.742Z,24.60
2023-05-10T21:31:57.207Z,24.60
2023-05-10T21:36:58.724Z,24.70
2023-05-10T21:42:00.182Z,24.70
2023-05-10T21:47:01.640Z,24.70
2023-05-10T21:52:03.097Z,24.70
2023-05-10T21:57:04.478Z,24.80
2023-05-10T22:02:05.908Z,24.80
2023-05-10T22:07:07.347Z,24.80
2023-05-10T22:12:08.852Z,24.80
2023-05-10T22:17:10.371Z,24.80
2023-05-10T22:22:11.933Z,24.90
2023-05-10T22:27:13.376Z,24.90
2023-05-10T22:32:14.775Z,24.90
2023-05-10T22:37:16.172Z,24.90
2023-05-10T22:42:17.560Z,25.00
2023-05-10T22:47:18.953Z,25.00
2023-05-10T22:52:20.382Z,25.00
2023-05-10T22:57:21.804Z,25.00
2023-05-10T23:02:23.213Z,24.90
2023-05-10T23:07:24.639Z,24.90
2023-05-10T23:12:26.059Z,24.90
2023-05-10T23:17:27.524Z,24.80
2023-05-10T23:22:28.970Z,24.80
2023-05-10T23:27:30.369Z,24.80
2023-05-10T23:32:31.800Z,24.80
2023-05-10T23:37:33.234Z,24.70
2023-05-10T23:42:34.626Z,24.70
2023-05-10T23:47:36.059Z,24.70
2023-05-10T23:52:37.474Z,24.60
2023-05-10T23:57:38.863Z,24.70
